Tiempo atmosférico en la estación meteorológica de Puntagorda, Santa Cruz de Tenerife (684 m.)



Fecha
DESCASC
Temp. máxima en grados centígrados (hora)
DESCASC
Temp. mínima en grados centígrados (hora)
DESCASC
Temp. media en grados centígrados
DESCASC
Racha de viento máxima en m/sg (hora)
DESCASC
Velocidad máxima media en intervalos de 10 minutos(hora)
DESCASC
Precipitaciones diarias en mm
DESCASC
Precipitaciones de 00:00 a 06:00 en mm
DESCASC
Precipitaciones de 06:00 a 12:00 en mm
DESCASC
Precipitaciones de 12:00 a 18:00 en mm
DESCASC
Precipitaciones de 18:00 a 24:00 en mm
DESCASC
10-07-2020 30.2 (00:00) 16.4 (07:40) 23.3 9.44 (00:40) 3.89 (00:50) 0 0 0 0 0
09-07-2020 36.1 (19:00) 23.9 (21:40) 30 8.06 (19:10) 4.44 (22:30) 0 0 0 0 0
08-07-2020 34.1 (14:40) 25.5 (00:20) 29.8 4.17 (14:50) 2.22 (08:30) 0 0 0 0 0
07-07-2020 33.4 (14:30) 25.8 (23:59) 29.6 4.44 (17:30) 2.78 (14:40) 0 0 0 0 0
06-07-2020 34.6 (17:40) 21.1 (00:00) 27.8 3.89 (10:30) 2.5 (15:00) 0 0 0 0 0
05-07-2020 25.1 (15:40) 15.6 (06:30) 20.4 5.28 (13:20) 3.33 (13:20) 0 0 0 0 0
04-07-2020 24 (14:10) 17.7 (21:40) 20.9 4.17 (10:30) 2.78 (10:30) 0 0 0 0 0
03-07-2020 25.5 (10:50) 18.1 (01:20) 21.8 4.72 (14:50) 2.78 (15:00) 0 0 0 0 0
02-07-2020 25.6 (11:20) 16.5 (00:00) 21.1 7.22 (19:30) 4.44 (10:50) 0 0 0 0 0
01-07-2020 22.7 (18:30) 13.9 (00:00) 18.3 5.28 (18:50) 3.33 (18:50) 0 0 0 0 0
30-06-2020 21.8 (14:50) 14.7 (00:00) 18.2 8.06 (16:50) 4.44 (17:20) 0 0 0 0 0
29-06-2020 22.8 (16:40) 14.1 (00:00) 18.4 6.11 (12:30) 3.61 (12:30) 0 0 0 0 0
28-06-2020 24 (16:10) 14.5 (00:00) 19.3 5.83 (13:50) 3.33 (13:50) 0 0 0 0 0
27-06-2020 24.2 (19:50) 13.5 (00:00) 18.9 5.28 (13:30) 3.06 (09:20) 0 0 0 0 0
26-06-2020 21.8 (16:50) 13.6 (00:00) 17.7 6.39 (15:20) 3.89 (15:20) 0 0 0 0 0
25-06-2020 21.8 (16:10) 13.9 (00:00) 17.8 6.39 (16:50) 3.89 (12:30) 0 0 0 0 0
24-06-2020 21.5 (16:20) 14.5 (00:00) 18 5.83 (14:00) 3.61 (19:10) 0 0 0 0 0
23-06-2020 23 (14:40) 13.9 (00:00) 18.4 5.83 (13:30) 3.06 (13:40) 0 0 0 0 0
22-06-2020 22 (20:00) 14.1 (00:00) 18.1 6.11 (16:20) 3.33 (16:20) 0 0 0 0 0
21-06-2020 21.5 (16:50) 13.9 (00:00) 17.7 5.83 (15:00) 3.33 (15:00) 0 0 0 0 0
20-06-2020 21.4 (18:00) 14.2 (00:00) 17.8 6.11 (16:00) 3.33 (15:50) 0 0 0 0 0
19-06-2020 21.2 (15:30) 14.1 (00:00) 17.7 5 (15:40) 2.78 (15:40) 0 0 0 0 0
18-06-2020 22 (18:20) 14.7 (06:30) 18.3 11.11 (17:20) 6.11 (16:50) 0 0 0 0 0
17-06-2020 22.7 (13:30) 16.2 (00:00) 19.5 7.5 (13:50) 4.72 (15:00) 0 0 0 0 0
16-06-2020 26.3 (13:20) 19.1 (00:00) 22.7 15.56 (14:30) 8.61 (14:50) 0 0 0 0 0
15-06-2020 26.4 (16:30) 17.7 (00:00) 22.1 10 (00:10) 6.39 (00:20) 5.4 0.2 5.2 0 0
14-06-2020 24.9 (20:30) 12.6 (00:00) 18.8 9.44 (23:59) 5 (16:50) 0 0 0 0 0
13-06-2020 20.6 (17:40) 12.4 (00:00) 16.5 6.11 (12:00) 3.89 (11:50) 0 0 0 0 0
12-06-2020 18.4 (11:50) 13.4 (00:00) 15.9 10 (09:40) 5.56 (09:30) 0 0 0 0 0

Gráficas

Temp. máximas Temp. mínimas Temp. medias Precipitaciones Rachas de viento máximas Velocidades máximas media en intervalos de 10 minutos

Datos horarios

Fecha y hora oficial Temperatura (ºC) Velocidad del viento (km/h) Dirección del viento Racha (km/h) Dirección de racha Precipitación (mm) Presión (hPa) Tendencia (hPa) Humedad (%)
2020-07-11 23:00:00 18.3 0 Calma 8 Noroeste 0 -- -- 79
2020-07-11 22:00:00 22.5 3 Sudoeste 5 Sudoeste 0 -- -- 52
2020-07-11 21:00:00 24.8 0 Calma 17 Nordeste 0 -- -- 38
2020-07-11 20:00:00 20 4 Sur 12 Sudoeste 0 -- -- 81
2020-07-11 19:00:00 20.8 8 Sur 14 Sur 0 -- -- 77
2020-07-11 18:00:00 23.6 7 Sur 12 Sur 0 -- -- 66
2020-07-11 17:00:00 27 6 Sudoeste 14 Sudoeste 0 -- -- 53
2020-07-11 16:00:00 23.6 7 Sudoeste 13 Oeste 0 -- -- 68
2020-07-11 15:00:00 23.8 7 Oeste 13 Oeste 0 -- -- 63
2020-07-11 14:00:00 22.7 7 Sur 14 Sur 0 -- -- 67
2020-07-11 13:00:00 23.4 5 Oeste 10 Sudoeste 0 -- -- 66
2020-07-11 12:00:00 19.7 7 Sur 16 Sur 0 -- -- 82
2020-07-11 11:00:00 20.8 4 Noroeste 12 Oeste 0 -- -- 66
2020-07-11 10:00:00 25.4 3 Oeste 9 Oeste 0 -- -- 32
2020-07-11 09:00:00 21.3 3 Sudeste 8 Este 0 -- -- 29
2020-07-11 08:00:00 19.1 0 Calma 7 Sudeste 0 -- -- 41
2020-07-11 07:00:00 17.6 4 Sur 14 Sur 0 -- -- 58
2020-07-11 06:00:00 20.3 4 Nordeste 15 Nordeste 0 -- -- 30
2020-07-11 05:00:00 18.4 5 Nordeste 9 Norte 0 -- -- 33
2020-07-11 04:00:00 17.6 2 Sudeste 13 Sur 0 -- -- 69
2020-07-11 03:00:00 19.6 7 Sudeste 15 Sudeste 0 -- -- 35
2020-07-11 02:00:00 20.7 5 Este 11 Nordeste 0 -- -- 33
2020-07-11 01:00:00 17.3 8 Sudeste 11 Sudeste 0 -- -- 50
2020-07-11 00:00:00 17.1 3 Sudoeste 9 Sur 0 -- -- 87
2020-07-10 23:00:00 17.2 3 Sudoeste 8 Sur 0 -- -- 92
2020-07-10 22:00:00 17.9 3 Sudeste 13 Nordeste 0 -- -- 86
2020-07-10 21:00:00 18.3 4 Sur 8 Sudoeste 0 -- -- 87
2020-07-10 20:00:00 19.9 5 Sudoeste 13 Sur 0 -- -- 80
2020-07-10 19:00:00 23.3 5 Sudoeste 12 Sur 0 -- -- 67
2020-07-10 18:00:00 21.3 7 Sur 15 Oeste 0 -- -- 76
2020-07-10 17:00:00 21.7 6 Oeste 19 Sudoeste 0 -- -- 72
2020-07-10 16:00:00 21.1 11 Sur 19 Sur 0 -- -- 75
2020-07-10 15:00:00 22.4 9 Sudoeste 14 Sudoeste 0 -- -- 69
2020-07-10 14:00:00 21.8 8 Sudoeste 17 Sur 0 -- -- 72
2020-07-10 13:00:00 22.2 8 Sudoeste 14 Sur 0 -- -- 70
2020-07-10 12:00:00 21.4 6 Noroeste 19 Norte 0 -- -- 74
2020-07-10 11:00:00 21.2 4 Sudoeste 9 Sudoeste 0 -- -- 76
2020-07-10 10:00:00 19.7 6 Sur 11 Sur 0 -- -- 77
2020-07-10 09:00:00 17.6 0 Calma 22 Norte 0 -- -- 84
2020-07-10 08:00:00 17 8 Norte 13 Norte 0 -- -- 82
2020-07-10 07:00:00 17.1 6 Este 13 Este 0 -- -- 84
2020-07-10 06:00:00 16.9 3 Sur 8 Sur 0 -- -- 87
2020-07-10 05:00:00 19.1 5 Norte 21 Este 0 -- -- 69
2020-07-10 04:00:00 21.8 12 Nordeste 24 Nordeste 0 -- -- 48
2020-07-10 03:00:00 28.6 9 Nordeste 31 Este 0 -- -- 16
2020-07-10 02:00:00 26 10 Norte 31 Nordeste 0 -- -- 29
2020-07-10 01:00:00 23.3 10 Nordeste 34 Nordeste 0 -- -- 44
2020-07-10 00:00:00 30.2 9 Norte 27 Norte 0 -- -- 9
2020-07-09 23:00:00 30.7 11 Nordeste 28 Nordeste 0 -- -- 6
2020-07-09 22:00:00 25.8 12 Nordeste 26 Norte 0 -- -- 21
2020-07-09 21:00:00 27.9 4 Sur 12 Este 0 -- -- 30
2020-07-09 20:00:00 34.8 10 Norte 29 Nordeste 0 -- -- 10
2020-07-09 19:00:00 36.1 13 Norte 27 Norte 0 -- -- 9
2020-07-09 18:00:00 31.9 5 Sudoeste 11 Sudoeste 0 -- -- 32
2020-07-09 17:00:00 33.7 8 Sudoeste 15 Sur 0 -- -- 12
2020-07-09 16:00:00 34.5 10 Sudoeste 18 Sur 0 -- -- 17
2020-07-09 15:00:00 35.3 6 Sudoeste 13 Sudoeste 0 -- -- 13
2020-07-09 14:00:00 32.3 6 Sudoeste 12 Sudoeste 0 -- -- 32
2020-07-09 13:00:00 33.6 5 Oeste 12 Sudoeste 0 -- -- 19
2020-07-09 12:00:00 34.2 6 Sudoeste 20 Nordeste 0 -- -- 11
2020-07-09 11:00:00 31.7 5 Sur 15 Norte 0 -- -- 14
2020-07-09 10:00:00 31.6 5 Sudoeste 13 Sur 0 -- -- 15
2020-07-09 09:00:00 30.4 3 Sudeste 9 Sudeste 0 -- -- 15
2020-07-09 08:00:00 28.9 3 Sur 8 Sudoeste 0 -- -- 15
2020-07-09 07:00:00 28.6 2 Norte 7 Este 0 -- -- 15
2020-07-09 06:00:00 27.4 5 Sudeste 10 Este 0 -- -- 16
2020-07-09 05:00:00 28 5 Nordeste 8 Este 0 -- -- 16
2020-07-09 04:00:00 27.7 6 Sudeste 10 Sudeste 0 -- -- 17
2020-07-09 03:00:00 28.4 3 Nordeste 10 Este 0 -- -- 16
2020-07-09 02:00:00 27.9 3 Este 8 Sudeste 0 -- -- 17
2020-07-09 01:00:00 27.7 6 Sudeste 9 Sudeste 0 -- -- 17
2020-07-09 00:00:00 28.1 4 Sudeste 8 Sudeste 0 -- -- 17
2020-07-08 23:00:00 28.4 3 Sudeste 5 Sudeste 0 -- -- 17
2020-07-08 22:00:00 28.3 0 Calma 4 Nordeste 0 -- -- 22
2020-07-08 21:00:00 29.2 0 Calma 9 Sur 0 -- -- 30
2020-07-08 20:00:00 31.1 3 Sudoeste 9 Oeste 0 -- -- 19
2020-07-08 19:00:00 32.9 4 Oeste 10 Sudoeste 0 -- -- 17
2020-07-08 18:00:00 33 6 Sudoeste 11 Sudoeste 0 -- -- 17
2020-07-08 17:00:00 33.8 6 Sudoeste 12 Sudoeste 0 -- -- 15
2020-07-08 16:00:00 33.3 7 Sudoeste 13 Sudoeste 0 -- -- 18
2020-07-08 15:00:00 33.8 7 Sudoeste 15 Oeste 0 -- -- 20
2020-07-08 14:00:00 33.1 6 Sudoeste 12 Sur 0 -- -- 21
2020-07-08 13:00:00 33.6 7 Sudoeste 12 Sur 0 -- -- 17
2020-07-08 12:00:00 33.9 5 Sudoeste 10 Sudoeste 0 -- -- 19
2020-07-08 11:00:00 32.7 4 Sudoeste 11 Sudoeste 0 -- -- 17
2020-07-08 10:00:00 32.3 2 Sudeste 9 Nordeste 0 -- -- 17
2020-07-08 09:00:00 30.2 3 Nordeste 12 Nordeste 0 -- -- 18
2020-07-08 08:00:00 28.8 2 Sudeste 7 Sudeste 0 -- -- 17
2020-07-08 07:00:00 28.2 2 Sudeste 8 Sudeste 0 -- -- 18
2020-07-08 06:00:00 27.5 0 Calma 6 Sudoeste 0 -- -- 20
2020-07-08 05:00:00 26.7 4 Nordeste 8 Nordeste 0 -- -- 20
2020-07-08 04:00:00 26.8 2 Sudeste 8 Sudoeste 0 -- -- 19
2020-07-08 03:00:00 27.5 3 Sur 8 Sudoeste 0 -- -- 20
2020-07-08 02:00:00 28.1 3 Nordeste 5 Nordeste 0 -- -- 19
2020-07-08 01:00:00 26.4 4 Este 8 Nordeste 0 -- -- 23
2020-07-08 00:00:00 25.8 4 Sudeste 8 Este 0 -- -- 28
2020-07-07 23:00:00 28 4 Norte 6 Norte 0 -- -- 25
2020-07-07 22:00:00 28.3 4 Este 8 Sudeste 0 -- -- 25
2020-07-07 21:00:00 30.3 5 Nordeste 8 Nordeste 0 -- -- 20
2020-07-07 20:00:00 32 3 Oeste 9 Oeste 0 -- -- 30
2020-07-07 19:00:00 31.2 5 Sur 10 Oeste 0 -- -- 38
2020-07-07 18:00:00 27.8 4 Sur 16 Sur 0 -- -- 51
2020-07-07 17:00:00 29.1 5 Sudoeste 12 Sudoeste 0 -- -- 51
2020-07-07 16:00:00 31.1 6 Sudoeste 14 Sudoeste 0 -- -- 37
2020-07-07 15:00:00 32.6 10 Sudoeste 16 Sur 0 -- -- 23
2020-07-07 14:00:00 31.3 5 Sur 12 Oeste 0 -- -- 28
2020-07-07 13:00:00 31.8 5 Oeste 11 Oeste 0 -- -- 20
2020-07-07 12:00:00 32 7 Oeste 13 Oeste 0 -- -- 22
2020-07-07 11:00:00 31.6 4 Oeste 9 Oeste 0 -- -- 16
2020-07-07 10:00:00 29.8 0 Calma 12 Sudeste 0 -- -- 15
2020-07-07 09:00:00 27.8 9 Sur 13 Sur 0 -- -- 18
2020-07-07 08:00:00 27.2 2 Sudeste 8 Sudeste 0 -- -- 19
2020-07-07 07:00:00 27.5 3 Sur 8 Sudeste 0 -- -- 17
2020-07-07 06:00:00 27.5 4 Sur 8 Sudeste 0 -- -- 19
2020-07-07 05:00:00 28.1 3 Sudeste 10 Este 0 -- -- 18
2020-07-07 04:00:00 28.9 6 Nordeste 15 Nordeste 0 -- -- 17
2020-07-07 03:00:00 28.8 7 Nordeste 13 Nordeste 0 -- -- 18
2020-07-07 02:00:00 28.6 5 Nordeste 10 Nordeste 0 -- -- 18
2020-07-07 01:00:00 28.3 0 Calma 6 Nordeste 0 -- -- 18
2020-07-07 00:00:00 28.1 3 Nordeste 9 Nordeste 0 -- -- 18
2020-07-06 23:00:00 27.5 2 Nordeste 6 Nordeste 0 -- -- 21
2020-07-06 22:00:00 28.5 2 Sur 8 Sur 0 -- -- 21
2020-07-06 21:00:00 32.2 4 Norte 13 Norte 0 -- -- 16
2020-07-06 20:00:00 33.9 6 Nordeste 14 Norte 0 -- -- 20
2020-07-06 19:00:00 33.5 4 Oeste 12 Oeste 0 -- -- 23
2020-07-06 18:00:00 33.5 5 Sudoeste 12 Oeste 0 -- -- 22
2020-07-06 17:00:00 32.4 7 Sur 13 Sur 0 -- -- 14
2020-07-06 16:00:00 30.6 5 Sur 13 Noroeste 0 -- -- 19
2020-07-06 15:00:00 31.7 9 Sur 13 Sudoeste 0 -- -- 29
2020-07-06 14:00:00 30.2 6 Sur 14 Sudoeste 0 -- -- 31
2020-07-06 13:00:00 29.4 6 Sur 13 Sudoeste 0 -- -- 34
2020-07-06 12:00:00 28.6 5 Sudoeste 13 Sudoeste 0 -- -- 29
2020-07-06 11:00:00 28.4 4 Noroeste 14 Sur 0 -- -- 31
2020-07-06 10:00:00 27.6 4 Noroeste 9 Oeste 0 -- -- 18
2020-07-06 09:00:00 24.9 4 Sudeste 8 Sudeste 0 -- -- 20
2020-07-06 08:00:00 23.3 4 Sudeste 9 Sur 0 -- -- 21
2020-07-06 07:00:00 22.3 4 Sudeste 12 Sudeste 0 -- -- 23
2020-07-06 06:00:00 22 6 Sudeste 12 Sudeste 0 -- -- 25
2020-07-06 05:00:00 21.8 2 Sudeste 7 Norte 0 -- -- 27
2020-07-06 04:00:00 21.9 2 Sudeste 8 Sudeste 0 -- -- 27
2020-07-06 03:00:00 22.1 3 Sudeste 8 Sur 0 -- -- 30
2020-07-06 02:00:00 22.4 0 Calma 6 Nordeste 0 -- -- 34
2020-07-06 01:00:00 21.9 6 Nordeste 9 Norte 0 -- -- 41
2020-07-06 00:00:00 21.2 2 Oeste 10 Sur 0 -- -- 53
2020-07-05 23:00:00 21.5 4 Sur 9 Nordeste 0 -- -- 53
2020-07-05 22:00:00 22.4 2 Norte 9 Norte 0 -- -- 55
2020-07-05 21:00:00 23 4 Sur 10 Sur 0 -- -- 55
2020-07-05 20:00:00 22.6 4 Sur 9 Sudoeste 0 -- -- 52
2020-07-05 19:00:00 22.2 5 Sur 14 Sudoeste 0 -- -- 66
2020-07-05 18:00:00 23.4 6 Sudoeste 12 Oeste 0 -- -- 62
2020-07-05 17:00:00 23.3 5 Sudoeste 17 Sur 0 -- -- 62
2020-07-05 16:00:00 23.9 9 Sudoeste 14 Sudoeste 0 -- -- 60
2020-07-05 15:00:00 22.7 6 Sudoeste 15 Sur 0 -- -- 64
2020-07-05 14:00:00 20.7 9 Sur 19 Sur 0 -- -- 71
2020-07-05 13:00:00 20.4 7 Sur 14 Sur 0 -- -- 74
2020-07-05 12:00:00 19.7 8 Sur 14 Sudoeste 0 -- -- 77
2020-07-05 11:00:00 18.9 5 Sudoeste 14 Sur 0 -- -- 78
2020-07-05 10:00:00 18.2 6 Sur 13 Sur 0 -- -- 79
2020-07-05 09:00:00 17.7 6 Norte 12 Nordeste 0 -- -- 76
2020-07-05 08:00:00 16.4 5 Sur 10 Sudoeste 0 -- -- 78
2020-07-05 07:00:00 16.4 5 Sudeste 9 Sudeste 0 -- -- 60
2020-07-05 06:00:00 16 3 Sur 10 Sur 0 -- -- 76
2020-07-05 05:00:00 16.5 4 Sur 10 Sudeste 0 -- -- 76
2020-07-05 04:00:00 16.6 3 Sudeste 10 Sur 0 -- -- 81
2020-07-05 03:00:00 17.4 0 Calma 9 Sudeste 0 -- -- 50
2020-07-05 02:00:00 18 4 Sur 8 Norte 0 -- -- 69
2020-07-05 01:00:00 19.9 3 Sudeste 9 Sudoeste 0 -- -- 50
2020-07-05 00:00:00 19.5 3 Este 8 Sudoeste 0 -- -- 34
2020-07-04 23:00:00 19.3 8 Este 11 Este 0 -- -- 47
2020-07-04 22:00:00 17.8 5 Sur 10 Sur 0 -- -- 79
2020-07-04 21:00:00 18.9 0 Calma 10 Sudoeste 0 -- -- 78
2020-07-04 20:00:00 20.6 5 Sudoeste 10 Sur 0 -- -- 72
2020-07-04 19:00:00 21.4 6 Sudoeste 14 Sudoeste 0 -- -- 71
2020-07-04 18:00:00 21.1 8 Sudoeste 15 Sur 0 -- -- 70
2020-07-04 17:00:00 23 8 Sudoeste 14 Sudoeste 0 -- -- 59
2020-07-04 16:00:00 22.3 8 Sudoeste 15 Sur 0 -- -- 65
2020-07-04 15:00:00 23 7 Sudoeste 13 Sudoeste 0 -- -- 63
2020-07-04 14:00:00 23.8 8 Sur 14 Sur 0 -- -- 59
2020-07-04 13:00:00 23.1 6 Sudoeste 13 Sudoeste 0 -- -- 61
2020-07-04 12:00:00 20.6 6 Sudoeste 14 Sudoeste 0 -- -- 74
2020-07-04 11:00:00 19.8 5 Sudoeste 15 Sur 0 -- -- 73
2020-07-04 10:00:00 21.5 5 Sur 13 Sur 0 -- -- 50
2020-07-04 09:00:00 20.7 4 Sur 12 Sur 0 -- -- 50
2020-07-04 08:00:00 19.9 5 Sur 14 Sudeste 0 -- -- 28
2020-07-04 07:00:00 19.4 2 Norte 11 Noroeste 0 -- -- 41
2020-07-04 06:00:00 19.8 5 Sur 8 Sur 0 -- -- 51
2020-07-04 05:00:00 21.7 3 Sudeste 8 Oeste 0 -- -- 24
2020-07-04 04:00:00 22.2 3 Nordeste 11 Sudeste 0 -- -- 28
2020-07-04 03:00:00 21.2 3 Sur 14 Sudeste 0 -- -- 29
2020-07-04 02:00:00 20.8 2 Oeste 7 Nordeste 0 -- -- 45
2020-07-04 01:00:00 20.4 2 Sur 12 Sudeste 0 -- -- 42
2020-07-04 00:00:00 20.8 7 Sudeste 11 Sudeste 0 -- -- 39
2020-07-03 23:00:00 20.6 3 Sur 9 Este 0 -- -- 68
2020-07-03 22:00:00 21.2 0 Calma 9 Norte 0 -- -- 64
2020-07-03 21:00:00 21.2 3 Norte 7 Oeste 0 -- -- 73
2020-07-03 20:00:00 21.8 5 Sudoeste 8 Sur 0 -- -- 71
2020-07-03 19:00:00 23.5 5 Sur 11 Sudoeste 0 -- -- 65
2020-07-03 18:00:00 24.7 4 Sudoeste 16 Sur 0 -- -- 60
2020-07-03 17:00:00 22.9 9 Sudoeste 15 Sur 0 -- -- 64
2020-07-03 16:00:00 24 9 Sudoeste 16 Sudoeste 0 -- -- 58
2020-07-03 15:00:00 23.5 10 Sudoeste 17 Sur 0 -- -- 61
2020-07-03 14:00:00 23.5 7 Sudoeste 14 Sur 0 -- -- 64
2020-07-03 13:00:00 22.3 7 Sudoeste 12 Sudoeste 0 -- -- 67
2020-07-03 12:00:00 22.1 6 Sudoeste 16 Sur 0 -- -- 67
2020-07-03 11:00:00 25.4 5 Sur 13 Sudoeste 0 -- -- 35
2020-07-03 10:00:00 21.2 6 Sur 12 Oeste 0 -- -- 66
2020-07-03 09:00:00 23 3 Sur 13 Sudeste 0 -- -- 29
2020-07-03 08:00:00 21.2 5 Sudeste 14 Sudeste 0 -- -- 27
2020-07-03 07:00:00 21.9 2 Noroeste 9 Norte 0 -- -- 30
2020-07-03 06:00:00 22.4 3 Nordeste 9 Norte 0 -- -- 20
2020-07-03 05:00:00 19 4 Sudeste 10 Sudeste 0 -- -- 54
2020-07-03 04:00:00 19.9 3 Sur 10 Sudeste 0 -- -- 44
2020-07-03 03:00:00 21.1 3 Sudeste 13 Sur 0 -- -- 39
2020-07-03 02:00:00 20.3 3 Sudeste 13 Sudeste 0 -- -- 46
2020-07-03 01:00:00 18.3 3 Sudeste 7 Sudeste 0 -- -- 76
2020-07-03 00:00:00 19.6 2 Sudeste 9 Sudeste 0 -- -- 69
2020-07-02 23:00:00 19.4 3 Nordeste 10 Sur 0 -- -- 58
2020-07-02 22:00:00 19.6 4 Sudeste 13 Sur 0 -- -- 76
2020-07-02 21:00:00 19 4 Sur 11 Sur 0 -- -- 82
2020-07-02 20:00:00 21.4 4 Sudoeste 26 Norte 0 -- -- 70
2020-07-02 19:00:00 22.9 10 Sur 18 Este 0 -- -- 65
2020-07-02 18:00:00 22.5 5 Sudoeste 19 Sur 0 -- -- 63
2020-07-02 17:00:00 24.8 10 Norte 17 Norte 0 -- -- 58
2020-07-02 16:00:00 23.9 6 Sudoeste 13 Oeste 0 -- -- 62
2020-07-02 15:00:00 23.1 11 Sur 19 Noroeste 0 -- -- 65
2020-07-02 14:00:00 22.7 5 Sur 18 Sur 0 -- -- 67
2020-07-02 13:00:00 21.3 5 Oeste 16 Sudoeste 0 -- -- 74
2020-07-02 12:00:00 22.5 8 Sur 18 Sudeste 0 -- -- 65
2020-07-02 11:00:00 23.3 8 Sur 23 Sur 0 -- -- 63
2020-07-02 10:00:00 19.7 6 Nordeste 22 Norte 0 -- -- 74
2020-07-02 09:00:00 20.2 3 Norte 13 Sudoeste 0 -- -- 51
2020-07-02 08:00:00 19.6 5 Sudeste 8 Sudeste 0 -- -- 29
2020-07-02 07:00:00 17.7 7 Sudeste 15 Sudeste 0 -- -- 37
2020-07-02 06:00:00 17.1 2 Sur 9 Nordeste 0 -- -- 67
2020-07-02 05:00:00 17.8 4 Este 12 Este 0 -- -- 41
2020-07-02 04:00:00 17.5 8 Nordeste 19 Nordeste 0 -- -- 54
2020-07-02 03:00:00 19.2 3 Sudeste 8 Sur 0 -- -- 40
2020-07-02 02:00:00 19.6 4 Sudeste 12 Nordeste 0 -- -- 47
2020-07-02 01:00:00 17.7 5 Nordeste 16 Nordeste 0 -- -- 59
2020-07-02 00:00:00 17.2 2 Sur 12 Norte 0 -- -- 79
2020-07-01 23:00:00 18 9 Norte 18 Norte 0 -- -- 80
2020-07-01 22:00:00 20.7 2 Sudeste 10 Sur 0 -- -- 55
2020-07-01 21:00:00 19 2 Nordeste 9 Sudoeste 0 -- -- 78
2020-07-01 20:00:00 20.1 5 Oeste 18 Sudoeste 0 -- -- 75
2020-07-01 19:00:00 20.5 8 Sudoeste 19 Sur 0 -- -- 74
2020-07-01 18:00:00 22 6 Oeste 15 Sudoeste 0 -- -- 69
2020-07-01 17:00:00 21.8 9 Sudoeste 16 Sudoeste 0 -- -- 64
2020-07-01 16:00:00 21.8 7 Oeste 16 Sudoeste 0 -- -- 67
2020-07-01 15:00:00 21.4 11 Sur 16 Sur 0 -- -- 70
2020-07-01 14:00:00 20.6 6 Sudoeste 18 Sudoeste 0 -- -- 76
2020-07-01 13:00:00 19.8 9 Sudoeste 15 Sudoeste 0 -- -- 77
2020-07-01 12:00:00 18.8 7 Sur 16 Sur 0 -- -- 82
2020-07-01 11:00:00 17.7 8 Sur 15 Sur 0 -- -- 87
2020-07-01 10:00:00 16.8 8 Sudoeste 13 Sur 0 -- -- 92
2020-07-01 09:00:00 15.6 2 Sudoeste 8 Sudeste 0 -- -- 92
2020-07-01 08:00:00 15 6 Sudeste 13 Sur 0 -- -- 94
2020-07-01 07:00:00 14.5 2 Nordeste 10 Sur 0 -- -- 92
2020-07-01 06:00:00 14.1 4 Sudeste 14 Este 0 -- -- 82
2020-07-01 05:00:00 14.3 5 Sudeste 6 Sudeste 0 -- -- 90
2020-07-01 04:00:00 15.3 0 Calma 9 Sur 0 -- -- 89
2020-07-01 03:00:00 16.5 0 Calma 8 Sur 0 -- -- 92
2020-07-01 02:00:00 16.1 3 Sudeste 8 Sudeste 0 -- -- 91
2020-07-01 01:00:00 16.1 4 Sudeste 17 Sur 0 -- -- 91
2020-07-01 00:00:00 16.5 12 Sur 20 Sur 0 -- -- 95
2020-06-30 23:00:00 16.7 4 Sudoeste 17 Sudoeste 0 -- -- 93
2020-06-30 22:00:00 17.4 4 Sur 10 Sur 0 -- -- 88
2020-06-30 21:00:00 17.8 5 Sudoeste 18 Sudoeste 0 -- -- 87
2020-06-30 20:00:00 19.8 9 Sudoeste 15 Sur 0 -- -- 76
2020-06-30 19:00:00 20.4 9 Sur 17 Sur 0 -- -- 74
2020-06-30 18:00:00 18.9 9 Sur 26 Sur 0 -- -- 78
2020-06-30 17:00:00 21 14 Sudoeste 29 Sur 0 -- -- 72
2020-06-30 16:00:00 21.6 10 Sudoeste 24 Sudoeste 0 -- -- 67
2020-06-30 15:00:00 21.8 14 Sudoeste 22 Sur 0 -- -- 66
2020-06-30 14:00:00 21 8 Sudoeste 14 Sudoeste 0 -- -- 68
2020-06-30 13:00:00 19.5 5 Oeste 12 Sur 0 -- -- 76
2020-06-30 12:00:00 18.1 6 Sudoeste 13 Sudoeste 0 -- -- 81
2020-06-30 11:00:00 18.4 7 Sudoeste 15 Sur 0 -- -- 82
2020-06-30 10:00:00 17.4 4 Oeste 11 Sur 0 -- -- 87
2020-06-30 09:00:00 15.8 4 Sur 8 Sur 0 -- -- 91
2020-06-30 08:00:00 15.2 0 Calma 8 Norte 0 -- -- 92
2020-06-30 07:00:00 14.8 5 Norte 10 Nordeste 0 -- -- 90
2020-06-30 06:00:00 15 0 Calma 6 Sudeste 0 -- -- 90
2020-06-30 05:00:00 16.3 3 Sudeste 9 Sur 0 -- -- 88
2020-06-30 04:00:00 16.5 2 Sudeste 6 Este 0 -- -- 89
2020-06-30 03:00:00 16.1 0 Calma 11 Este 0 -- -- 90
2020-06-30 02:00:00 16 0 Calma 10 Sur 0 -- -- 93
2020-06-30 01:00:00 16 3 Sudeste 9 Este 0 -- -- 86
2020-06-30 00:00:00 16.9 5 Nordeste 10 Este 0 -- -- 89
2020-06-29 23:00:00 17.1 8 Sur 17 Sudoeste 0 -- -- 93
2020-06-29 22:00:00 17.6 4 Sudoeste 11 Sur 0 -- -- 90
2020-06-29 21:00:00 19 4 Oeste 12 Oeste 0 -- -- 82
2020-06-29 20:00:00 21.1 7 Sudoeste 14 Sudoeste 0 -- -- 71
2020-06-29 19:00:00 21.9 6 Sur 19 Sudoeste 0 -- -- 66
2020-06-29 18:00:00 21.7 9 Sudoeste 20 Oeste 0 -- -- 68
2020-06-29 17:00:00 21.8 13 Sudoeste 22 Oeste 0 -- -- 70
2020-06-29 16:00:00 20.9 8 Oeste 18 Sur 0 -- -- 75
2020-06-29 15:00:00 21.4 12 Oeste 19 Sudoeste 0 -- -- 67
2020-06-29 14:00:00 21.9 11 Sudoeste 19 Sur 0 -- -- 69
2020-06-29 13:00:00 21 8 Sur 22 Sudoeste 0 -- -- 73
2020-06-29 12:00:00 19.5 11 Sudoeste 18 Sur 0 -- -- 78
2020-06-29 11:00:00 19.4 10 Sudoeste 15 Sudoeste 0 -- -- 77
2020-06-29 10:00:00 18 7 Sur 10 Sur 0 -- -- 81
2020-06-29 09:00:00 16 3 Sur 12 Sudeste 0 -- -- 91
2020-06-29 08:00:00 14.7 3 Sur 8 Nordeste 0 -- -- 86
2020-06-29 07:00:00 14.1 6 Sudeste 9 Sudeste 0 -- -- 90
2020-06-29 06:00:00 14.8 5 Sudeste 10 Sur 0 -- -- 92
2020-06-29 05:00:00 14.7 4 Sudeste 9 Sur 0 -- -- 87
2020-06-29 04:00:00 14.8 4 Sudeste 9 Sur 0 -- -- 88
2020-06-29 03:00:00 15.6 3 Sudeste 11 Sur 0 -- -- 90
2020-06-29 02:00:00 15.9 8 Sur 12 Sur 0 -- -- 84
2020-06-29 01:00:00 16.1 5 Sudeste 14 Sudeste 0 -- -- 86
2020-06-29 00:00:00 16.7 6 Sur 10 Sur 0 -- -- 94
2020-06-28 23:00:00 16.6 5 Sudeste 10 Sudeste 0 -- -- 86
2020-06-28 22:00:00 17.1 5 Sur 8 Sur 0 -- -- 88
2020-06-28 21:00:00 18.3 5 Sudoeste 14 Sudoeste 0 -- -- 84
2020-06-28 20:00:00 21.2 7 Sudoeste 13 Sur 0 -- -- 74
2020-06-28 19:00:00 19.3 5 Sur 15 Sur 0 -- -- 83
2020-06-28 18:00:00 20.9 8 Oeste 20 Oeste 0 -- -- 75
2020-06-28 17:00:00 22.4 10 Sudoeste 17 Sudoeste 0 -- -- 68
2020-06-28 16:00:00 23.8 6 Noroeste 17 Sudoeste 0 -- -- 62
2020-06-28 15:00:00 20.6 8 Sudoeste 18 Sudoeste 0 -- -- 76
2020-06-28 14:00:00 20.9 11 Sudoeste 21 Sur 0 -- -- 73
2020-06-28 13:00:00 21.5 7 Sur 13 Sudoeste 0 -- -- 72
2020-06-28 12:00:00 19.2 9 Sur 16 Sur 0 -- -- 82
2020-06-28 11:00:00 19.1 7 Noroeste 13 Oeste 0 -- -- 77
2020-06-28 10:00:00 18.1 6 Sur 9 Sudoeste 0 -- -- 77
2020-06-28 09:00:00 16.4 4 Sudeste 14 Sudeste 0 -- -- 84
2020-06-28 08:00:00 15.3 0 Calma 10 Sur 0 -- -- 86
2020-06-28 07:00:00 15.5 5 Sur 9 Sur 0 -- -- 75
2020-06-28 06:00:00 15.7 3 Sudeste 11 Este 0 -- -- 42
2020-06-28 05:00:00 14.6 2 Sudeste 9 Sudeste 0 -- -- 76
2020-06-28 04:00:00 15.1 3 Nordeste 9 Sur 0 -- -- 81
2020-06-28 03:00:00 15.6 4 Sur 8 Sur 0 -- -- 77
2020-06-28 02:00:00 15.1 3 Sudeste 12 Sur 0 -- -- 82
2020-06-28 01:00:00 15.8 3 Sur 7 Sur 0 -- -- 79
2020-06-28 00:00:00 16.9 3 Oeste 12 Sudeste 0 -- -- 76
2020-06-27 23:00:00 17.6 6 Sudeste 12 Sudeste 0 -- -- 42
2020-06-27 22:00:00 17.3 2 Sudoeste 6 Oeste 0 -- -- 77
2020-06-27 21:00:00 19.3 3 Oeste 11 Sudoeste 0 -- -- 70
2020-06-27 20:00:00 24.2 4 Sudoeste 11 Sur 0 -- -- 52
2020-06-27 19:00:00 21.4 8 Sudoeste 16 Sudoeste 0 -- -- 61
2020-06-27 18:00:00 21.4 10 Sudoeste 19 Sur 0 -- -- 62
2020-06-27 17:00:00 21.5 8 Sudoeste 17 Sudoeste 0 -- -- 64
2020-06-27 16:00:00 22.3 6 Sudoeste 18 Sur 0 -- -- 62
2020-06-27 15:00:00 21.4 9 Sudoeste 17 Oeste 0 -- -- 58
2020-06-27 14:00:00 20.9 8 Sudoeste 19 Oeste 0 -- -- 62
2020-06-27 13:00:00 19.9 9 Oeste 18 Sur 0 -- -- 68
2020-06-27 12:00:00 18.6 8 Sudoeste 17 Sudoeste 0 -- -- 75
2020-06-27 11:00:00 17.6 5 Oeste 12 Oeste 0 -- -- 80
2020-06-27 10:00:00 17.1 6 Sudoeste 16 Sur 0 -- -- 75
2020-06-27 09:00:00 14.7 6 Sur 9 Sur 0 -- -- 82
2020-06-27 08:00:00 13.5 3 Sudeste 11 Sudeste 0 -- -- 92
2020-06-27 07:00:00 13.9 3 Sudeste 12 Sur 0 -- -- 94
2020-06-27 06:00:00 13.9 7 Sur 13 Sur 0 -- -- 94
2020-06-27 05:00:00 14.4 5 Sudeste 11 Sur 0 -- -- 93
2020-06-27 04:00:00 14.4 2 Sudeste 9 Sudeste 0 -- -- 91
2020-06-27 03:00:00 14.8 3 Sudeste 7 Sudeste 0 -- -- 92
2020-06-27 02:00:00 14.8 6 Sur 12 Sur 0 -- -- 87
2020-06-27 01:00:00 15.1 3 Sur 10 Sudeste 0 -- -- 85
2020-06-27 00:00:00 15.6 5 Sur 11 Sur 0 -- -- 90
2020-06-26 23:00:00 16.1 5 Sur 9 Sudeste 0 -- -- 90
2020-06-26 22:00:00 16.4 3 Sur 15 Sudoeste 0 -- -- 88
2020-06-26 21:00:00 17.6 10 Sudoeste 19 Sur 0 -- -- 84
2020-06-26 20:00:00 19.5 10 Sur 18 Sudoeste 0 -- -- 70
2020-06-26 19:00:00 20.2 10 Sudoeste 17 Sudoeste 0 -- -- 67
2020-06-26 18:00:00 21.3 8 Sudoeste 18 Sur 0 -- -- 63
2020-06-26 17:00:00 21.6 9 Sudoeste 20 Sudoeste 0 -- -- 60
2020-06-26 16:00:00 21.6 10 Sudoeste 23 Sur 0 -- -- 62
2020-06-26 15:00:00 21.4 9 Sudoeste 20 Sur 0 -- -- 62
2020-06-26 14:00:00 21.3 9 Sudoeste 17 Oeste 0 -- -- 60
2020-06-26 13:00:00 20 8 Sudoeste 16 Sudoeste 0 -- -- 66
2020-06-26 12:00:00 19.2 7 Sudoeste 15 Sudoeste 0 -- -- 77
2020-06-26 11:00:00 17.9 8 Sudoeste 15 Sur 0 -- -- 83
2020-06-26 10:00:00 16.8 6 Sudoeste 12 Sur 0 -- -- 85
2020-06-26 09:00:00 15.3 2 Sudoeste 9 Sudeste 0 -- -- 84
2020-06-26 08:00:00 14 6 Sudeste 10 Sudeste 0 -- -- 79
2020-06-26 07:00:00 13.8 7 Sudeste 11 Nordeste 0 -- -- 81
2020-06-26 06:00:00 13.8 0 Calma 10 Sudeste 0 -- -- 87
2020-06-26 05:00:00 14 2 Norte 8 Nordeste 0 -- -- 86
2020-06-26 04:00:00 13.9 5 Este 10 Sudeste 0 -- -- 85
2020-06-26 03:00:00 14.6 2 Sudeste 8 Sur 0 -- -- 89
2020-06-26 02:00:00 14.6 4 Sudeste 8 Sur 0 -- -- 83
2020-06-26 01:00:00 15.4 5 Este 7 Este 0 -- -- 84
2020-06-26 00:00:00 16.1 3 Sur 6 Sudoeste 0 -- -- 89
2020-06-25 23:00:00 16.1 4 Sudoeste 8 Sur 0 -- -- 87
2020-06-25 22:00:00 16.9 3 Sudeste 11 Sur 0 -- -- 80
2020-06-25 21:00:00 18.2 6 Sudoeste 11 Sudoeste 0 -- -- 76
2020-06-25 20:00:00 19.6 8 Sudoeste 15 Sudoeste 0 -- -- 74
2020-06-25 19:00:00 20.6 9 Sudoeste 18 Sur 0 -- -- 71
2020-06-25 18:00:00 21 10 Sudoeste 21 Sudoeste 0 -- -- 70
2020-06-25 17:00:00 21.2 11 Sudoeste 23 Sur 0 -- -- 64
2020-06-25 16:00:00 21.7 10 Sudoeste 18 Sudoeste 0 -- -- 62
2020-06-25 15:00:00 21.2 8 Sudoeste 20 Sudoeste 0 -- -- 65
2020-06-25 14:00:00 20.2 11 Sudoeste 22 Sur 0 -- -- 67
2020-06-25 13:00:00 20.1 12 Sur 22 Sudoeste 0 -- -- 64
2020-06-25 12:00:00 19.8 10 Sudoeste 18 Sudoeste 0 -- -- 71
2020-06-25 11:00:00 18.3 8 Sur 13 Sur 0 -- -- 75
2020-06-25 10:00:00 17 4 Oeste 13 Sur 0 -- -- 80
2020-06-25 09:00:00 15.5 9 Sur 12 Sur 0 -- -- 87
2020-06-25 08:00:00 14.3 6 Sur 15 Sur 0 -- -- 85
2020-06-25 07:00:00 14 8 Sudeste 12 Sudeste 0 -- -- 89
2020-06-25 06:00:00 14.9 3 Sudoeste 10 Sur 0 -- -- 92
2020-06-25 05:00:00 14.2 5 Sur 9 Sur 0 -- -- 86
2020-06-25 04:00:00 14.2 7 Sudeste 10 Sudeste 0 -- -- 84
2020-06-25 03:00:00 15.4 2 Sudeste 11 Sudeste 0 -- -- 89
2020-06-25 02:00:00 14.8 2 Sur 10 Sudeste 0 -- -- 85
2020-06-25 01:00:00 15.5 4 Sudeste 12 Sudeste 0 -- -- 83
2020-06-25 00:00:00 16.5 0 Calma 13 Sudoeste 0 -- -- 84
2020-06-24 23:00:00 16.9 9 Sur 15 Sur 0 -- -- 88
2020-06-24 22:00:00 17.1 5 Sudoeste 13 Sur 0 -- -- 88
2020-06-24 21:00:00 17.4 10 Sur 18 Sur 0 -- -- 88
2020-06-24 20:00:00 19.7 7 Sudoeste 21 Sur 0 -- -- 73
2020-06-24 19:00:00 20.6 10 Sudoeste 18 Sudoeste 0 -- -- 69
2020-06-24 18:00:00 20.7 8 Sudoeste 17 Sudoeste 0 -- -- 71
2020-06-24 17:00:00 21.5 9 Sudoeste 18 Oeste 0 -- -- 66
2020-06-24 16:00:00 21.1 11 Sudoeste 19 Sudoeste 0 -- -- 67
2020-06-24 15:00:00 20.6 10 Sudoeste 21 Sudoeste 0 -- -- 70
2020-06-24 14:00:00 20.7 12 Sudoeste 21 Sur 0 -- -- 67
2020-06-24 13:00:00 20.2 8 Sudoeste 17 Sudoeste 0 -- -- 72
2020-06-24 12:00:00 18.9 8 Oeste 15 Sudoeste 0 -- -- 75
2020-06-24 11:00:00 18.4 7 Sudoeste 12 Sur 0 -- -- 76
2020-06-24 10:00:00 16.8 4 Sudoeste 10 Sur 0 -- -- 83
2020-06-24 09:00:00 15.4 4 Sur 11 Sur 0 -- -- 87
2020-06-24 08:00:00 14.7 9 Sur 15 Sur 0 -- -- 89
2020-06-24 07:00:00 15.9 2 Sudoeste 9 Sur 0 -- -- 88
2020-06-24 06:00:00 16 4 Sudoeste 6 Sudoeste 0 -- -- 90
2020-06-24 05:00:00 15.4 0 Calma 6 Norte 0 -- -- 92
2020-06-24 04:00:00 15.5 0 Calma 16 Sur 0 -- -- 91
2020-06-24 03:00:00 15 4 Sur 8 Sudeste 0 -- -- 89
2020-06-24 02:00:00 16.2 2 Sur 11 Sur 0 -- -- 86
2020-06-24 01:00:00 16.9 4 Oeste 7 Oeste 0 -- -- 87
2020-06-24 00:00:00 16.5 3 Noroeste 12 Sudoeste 0 -- -- 89
2020-06-23 23:00:00 16.6 6 Sur 11 Sur 0 -- -- 92
2020-06-23 22:00:00 17 5 Sur 8 Sur 0 -- -- 84
2020-06-23 21:00:00 18.2 3 Noroeste 14 Sur 0 -- -- 81
2020-06-23 20:00:00 19.6 8 Sudoeste 15 Sur 0 -- -- 76
2020-06-23 19:00:00 21.5 6 Sudoeste 13 Sur 0 -- -- 70
2020-06-23 18:00:00 22.2 5 Oeste 17 Oeste 0 -- -- 66
2020-06-23 17:00:00 21.5 9 Sudoeste 17 Sudoeste 0 -- -- 64
2020-06-23 16:00:00 22.4 9 Oeste 16 Oeste 0 -- -- 62
2020-06-23 15:00:00 22.9 9 Sudoeste 14 Sudoeste 0 -- -- 62
2020-06-23 14:00:00 21 7 Sur 21 Sudoeste 0 -- -- 70
2020-06-23 13:00:00 20.3 9 Noroeste 18 Noroeste 0 -- -- 74
2020-06-23 12:00:00 19.5 6 Oeste 13 Oeste 0 -- -- 74
2020-06-23 11:00:00 18.6 5 Sudoeste 14 Sur 0 -- -- 77
2020-06-23 10:00:00 17.4 8 Sur 13 Sur 0 -- -- 82
2020-06-23 09:00:00 16 2 Sur 5 Sur 0 -- -- 84
2020-06-23 08:00:00 15.2 3 Sudeste 9 Norte 0 -- -- 73
2020-06-23 07:00:00 14.7 5 Sudeste 14 Norte 0 -- -- 77
2020-06-23 06:00:00 13.9 4 Sudeste 8 Sudeste 0 -- -- 65
2020-06-23 05:00:00 14.4 0 Calma 7 Nordeste 0 -- -- 79
2020-06-23 04:00:00 15.6 2 Sur 6 Noroeste 0 -- -- 62
2020-06-23 03:00:00 18.2 0 Calma 11 Sudeste 0 -- -- 27
2020-06-23 02:00:00 17.6 4 Sudeste 9 Sudeste 0 -- -- 31
2020-06-23 01:00:00 16.6 0 Calma 6 Noroeste 0 -- -- 45
2020-06-23 00:00:00 18.7 0 Calma 7 Sudeste 0 -- -- 41
2020-06-22 23:00:00 17.5 5 Sudeste 8 Sudeste 0 -- -- 45
2020-06-22 22:00:00 17.7 4 Sur 5 Sur 0 -- -- 82
2020-06-22 21:00:00 19.6 3 Sur 6 Sur 0 -- -- 78
2020-06-22 20:00:00 22 4 Oeste 10 Sudoeste 0 -- -- 69
2020-06-22 19:00:00 21.2 5 Sudoeste 13 Oeste 0 -- -- 72
2020-06-22 18:00:00 20.8 9 Sudoeste 15 Oeste 0 -- -- 74
2020-06-22 17:00:00 21.1 8 Sudoeste 22 Sudoeste 0 -- -- 71
2020-06-22 16:00:00 21 11 Sudoeste 19 Sur 0 -- -- 72
2020-06-22 15:00:00 21.7 8 Sudoeste 15 Sudoeste 0 -- -- 69
2020-06-22 14:00:00 20.9 8 Sur 14 Sudoeste 0 -- -- 75
2020-06-22 13:00:00 20.6 8 Sudoeste 14 Sudoeste 0 -- -- 75
2020-06-22 12:00:00 19.9 5 Sudoeste 12 Sur 0 -- -- 77
2020-06-22 11:00:00 18.7 6 Sudoeste 11 Sudoeste 0 -- -- 78
2020-06-22 10:00:00 18.1 4 Sur 9 Sur 0 -- -- 78
2020-06-22 09:00:00 16.8 3 Sudeste 14 Este 0 -- -- 45
2020-06-22 08:00:00 14.3 7 Nordeste 12 Nordeste 0 -- -- 87
2020-06-22 07:00:00 15.4 3 Sur 6 Este 0 -- -- 57
2020-06-22 06:00:00 14.8 4 Nordeste 13 Nordeste 0 -- -- 40
2020-06-22 05:00:00 14.3 5 Sudeste 14 Nordeste 0 -- -- 67
2020-06-22 04:00:00 14.8 0 Calma 8 Norte 0 -- -- 74
2020-06-22 03:00:00 15.6 3 Este 9 Norte 0 -- -- 55
2020-06-22 02:00:00 16.4 3 Sudeste 6 Sudeste 0 -- -- 73
2020-06-22 01:00:00 16.7 4 Nordeste 6 Nordeste 0 -- -- 51
2020-06-22 00:00:00 15.5 0 Calma 4 Sudeste 0 -- -- 84
2020-06-21 23:00:00 16.5 3 Sudeste 6 Sur 0 -- -- 91
2020-06-21 22:00:00 17.3 2 Este 6 Sur 0 -- -- 83
2020-06-21 21:00:00 19.7 0 Calma 8 Oeste 0 -- -- 73
2020-06-21 20:00:00 20.8 4 Oeste 13 Sur 0 -- -- 70
2020-06-21 19:00:00 20.8 8 Sudoeste 20 Sur 0 -- -- 68
2020-06-21 18:00:00 20.6 12 Sur 20 Sudoeste 0 -- -- 68
2020-06-21 17:00:00 21.5 9 Sudoeste 17 Oeste 0 -- -- 67
2020-06-21 16:00:00 21 9 Sudoeste 21 Sur 0 -- -- 69
2020-06-21 15:00:00 21 12 Sudoeste 21 Sudoeste 0 -- -- 70
2020-06-21 14:00:00 20.1 9 Sudoeste 18 Sur 0 -- -- 75
2020-06-21 13:00:00 19.4 10 Sudoeste 18 Sudoeste 0 -- -- 78
2020-06-21 12:00:00 19 10 Sudoeste 17 Sur 0 -- -- 78
2020-06-21 11:00:00 17.9 7 Sudoeste 12 Oeste 0 -- -- 84
2020-06-21 10:00:00 17 8 Sudoeste 14 Sudoeste 0 -- -- 87
2020-06-21 09:00:00 15.9 5 Sur 8 Sur 0 -- -- 90
2020-06-21 08:00:00 15 2 Sudeste 9 Sudeste 0 -- -- 93
2020-06-21 07:00:00 14.1 5 Sudeste 8 Sudeste 0 -- -- 93
2020-06-21 06:00:00 14.2 4 Sudeste 12 Sudeste 0 -- -- 92
2020-06-21 05:00:00 14.6 6 Sudeste 12 Este 0 -- -- 93
2020-06-21 04:00:00 14.7 6 Sudeste 12 Sudeste 0 -- -- 92
2020-06-21 03:00:00 15.1 6 Sur 13 Sur 0 -- -- 92
2020-06-21 02:00:00 15.8 6 Sur 13 Sudoeste 0 -- -- 92
2020-06-21 01:00:00 16.6 6 Sudoeste 14 Sur 0 -- -- 93
2020-06-21 00:00:00 16.8 10 Sur 18 Sur 0 -- -- 93
2020-06-20 23:00:00 17.2 3 Sudoeste 16 Sur 0 -- -- 91
2020-06-20 22:00:00 17.5 6 Sudoeste 13 Sur 0 -- -- 89
2020-06-20 21:00:00 18.1 6 Sur 16 Sudoeste 0 -- -- 86
2020-06-20 20:00:00 19.7 9 Sudoeste 18 Sur 0 -- -- 70
2020-06-20 19:00:00 20.8 7 Sudoeste 14 Sudoeste 0 -- -- 73
2020-06-20 18:00:00 21.4 8 Sudoeste 18 Oeste 0 -- -- 70
2020-06-20 17:00:00 20.6 8 Sudoeste 17 Oeste 0 -- -- 75
2020-06-20 16:00:00 21.3 11 Sudoeste 22 Sur 0 -- -- 69
2020-06-20 15:00:00 20.9 9 Sudoeste 17 Oeste 0 -- -- 72
2020-06-20 14:00:00 20.8 9 Oeste 16 Sudoeste 0 -- -- 69
2020-06-20 13:00:00 20.7 8 Oeste 17 Sur 0 -- -- 69
2020-06-20 12:00:00 19.9 6 Oeste 14 Sur 0 -- -- 73
2020-06-20 11:00:00 18.4 5 Sudoeste 11 Oeste 0 -- -- 77
2020-06-20 10:00:00 17.9 4 Sudoeste 10 Sur 0 -- -- 76
2020-06-20 09:00:00 16.1 0 Calma 11 Nordeste 0 -- -- 85
2020-06-20 08:00:00 14.4 5 Nordeste 7 Este 0 -- -- 89
2020-06-20 07:00:00 14.4 4 Sudeste 10 Nordeste 0 -- -- 86
2020-06-20 06:00:00 14.8 7 Nordeste 12 Nordeste 0 -- -- 85
2020-06-20 05:00:00 15.4 0 Calma 5 Este 0 -- -- 86
2020-06-20 04:00:00 15.3 3 Este 8 Este 0 -- -- 88
2020-06-20 03:00:00 15.2 5 Sudeste 9 Sudeste 0 -- -- 88
2020-06-20 02:00:00 15.4 3 Sudeste 5 Sudeste 0 -- -- 87
2020-06-20 01:00:00 15.8 4 Sudeste 9 Nordeste 0 -- -- 87
2020-06-20 00:00:00 16 2 Este 8 Nordeste 0 -- -- 87
2020-06-19 23:00:00 16.8 0 Calma 4 Este 0 -- -- 84
2020-06-19 22:00:00 17.8 3 Noroeste 10 Sur 0 -- -- 78
2020-06-19 21:00:00 19.1 5 Sudoeste 10 Oeste 0 -- -- 78
2020-06-19 20:00:00 20.6 6 Sudoeste 13 Oeste 0 -- -- 75
2020-06-19 19:00:00 19.8 7 Sudoeste 17 Sudoeste 0 -- -- 77
2020-06-19 18:00:00 20.6 6 Sur 17 Oeste 0 -- -- 74
2020-06-19 17:00:00 21 8 Sudoeste 15 Oeste 0 -- -- 72
2020-06-19 16:00:00 21 9 Sur 18 Oeste 0 -- -- 71
2020-06-19 15:00:00 20 8 Sudoeste 17 Oeste 0 -- -- 74
2020-06-19 14:00:00 21.1 9 Oeste 18 Sur 0 -- -- 67
2020-06-19 13:00:00 20.4 8 Sudoeste 15 Oeste 0 -- -- 70
2020-06-19 12:00:00 19.9 8 Sudoeste 15 Sudoeste 0 -- -- 71
2020-06-19 11:00:00 19.2 6 Sudoeste 13 Oeste 0 -- -- 72
2020-06-19 10:00:00 18 8 Sudoeste 13 Sur 0 -- -- 76
2020-06-19 09:00:00 16.5 0 Calma 5 Este 0 -- -- 81
2020-06-19 08:00:00 14.5 4 Este 8 Sudeste 0 -- -- 87
2020-06-19 07:00:00 14.2 5 Sudeste 7 Sudeste 0 -- -- 87
2020-06-19 06:00:00 14.7 3 Este 8 Sudeste 0 -- -- 87
2020-06-19 05:00:00 15.1 4 Sur 8 Sur 0 -- -- 81
2020-06-19 04:00:00 15.2 0 Calma 6 Sudeste 0 -- -- 79
2020-06-19 03:00:00 15.1 3 Este 9 Sudeste 0 -- -- 86
2020-06-19 02:00:00 15.9 4 Sudeste 9 Sur 0 -- -- 90
2020-06-19 01:00:00 16.1 3 Sudeste 13 Nordeste 0 -- -- 84
2020-06-19 00:00:00 17.1 2 Sudeste 7 Oeste 0 -- -- 90
2020-06-18 23:00:00 17.2 4 Oeste 11 Sudoeste 0 -- -- 91
2020-06-18 22:00:00 17.4 2 Sudoeste 9 Sudoeste 0 -- -- 84
2020-06-18 21:00:00 18.8 5 Sudoeste 12 Sudoeste 0 -- -- 77
2020-06-18 20:00:00 20.7 7 Oeste 28 Sudoeste 0 -- -- 71
2020-06-18 19:00:00 21.2 10 Norte 28 Norte 0 -- -- 65
2020-06-18 18:00:00 21.7 12 Norte 40 Nordeste 0 -- -- 64
2020-06-18 17:00:00 21.1 19 Norte 39 Norte 0 -- -- 71
2020-06-18 16:00:00 21.5 18 Norte 35 Norte 0 -- -- 67
2020-06-18 15:00:00 21.3 11 Norte 33 Nordeste 0 -- -- 70
2020-06-18 14:00:00 20.9 15 Norte 34 Norte 0 -- -- 72
2020-06-18 13:00:00 20.3 14 Norte 33 Norte 0 -- -- 74
2020-06-18 12:00:00 19.6 17 Norte 33 Norte 0 -- -- 77
2020-06-18 11:00:00 19.2 7 Norte 28 Norte 0 -- -- 75
2020-06-18 10:00:00 18.2 11 Norte 26 Norte 0 -- -- 74
2020-06-18 09:00:00 16.8 14 Nordeste 31 Nordeste 0 -- -- 76
2020-06-18 08:00:00 16 16 Nordeste 36 Nordeste 0 -- -- 71
2020-06-18 07:00:00 15.7 15 Norte 29 Nordeste 0 -- -- 74
2020-06-18 06:00:00 14.9 18 Norte 33 Norte 0 -- -- 91
2020-06-18 05:00:00 15.2 16 Norte 30 Norte 0 -- -- 82
2020-06-18 04:00:00 15.3 18 Norte 31 Nordeste 0 -- -- 92
2020-06-18 03:00:00 15.5 13 Nordeste 28 Nordeste 0 -- -- 90
2020-06-18 02:00:00 16 13 Nordeste 24 Norte 0 -- -- 90
2020-06-18 01:00:00 16.5 9 Nordeste 24 Nordeste 0 -- -- 82
2020-06-18 00:00:00 16.4 9 Nordeste 21 Nordeste 0 -- -- 83
2020-06-17 23:00:00 16.6 10 Norte 18 Norte 0 -- -- 88
2020-06-17 22:00:00 16.8 10 Norte 17 Norte 0 -- -- 87
2020-06-17 21:00:00 17.7 9 Norte 15 Norte 0 -- -- 82
2020-06-17 20:00:00 20.1 9 Norte 18 Noroeste 0 -- -- 67
2020-06-17 19:00:00 20.4 12 Norte 23 Norte 0 -- -- 65
2020-06-17 18:00:00 20.8 12 Norte 22 Noroeste 0 -- -- 69
2020-06-17 17:00:00 21.4 14 Norte 26 Noroeste 0 -- -- 66
2020-06-17 16:00:00 22 12 Norte 24 Norte 0 -- -- 62
2020-06-17 15:00:00 22.2 17 Norte 26 Norte 0 -- -- 61
2020-06-17 14:00:00 22.5 16 Norte 27 Norte 0 -- -- 55
2020-06-17 13:00:00 21.5 11 Norte 25 Norte 0 -- -- 62
2020-06-17 12:00:00 20.1 10 Norte 15 Norte 0 -- -- 78
2020-06-17 11:00:00 20.2 6 Oeste 12 Norte 0 -- -- 72
2020-06-17 10:00:00 19.2 5 Oeste 13 Sur 0 -- -- 79
2020-06-17 09:00:00 18.8 9 Sur 13 Sur 0 -- -- 75
2020-06-17 08:00:00 17.9 3 Nordeste 11 Sudeste 0 -- -- 81
2020-06-17 07:00:00 17.4 4 Este 8 Sur 0 -- -- 77
2020-06-17 06:00:00 17.7 3 Sur 8 Sudeste 0 -- -- 75
2020-06-17 05:00:00 18.2 5 Sur 8 Sur 0 -- -- 73
2020-06-17 04:00:00 18.2 4 Este 19 Nordeste 0 -- -- 74
2020-06-17 03:00:00 18.7 10 Norte 19 Nordeste 0 -- -- 73
2020-06-17 02:00:00 20.5 9 Nordeste 22 Noroeste 0 -- -- 61
2020-06-17 01:00:00 22.2 4 Norte 23 Nordeste 0 -- -- 54
2020-06-17 00:00:00 21.9 13 Nordeste 24 Norte 0 -- -- 55
2020-06-16 23:00:00 21.3 8 Nordeste 28 Nordeste 0 -- -- 58
2020-06-16 22:00:00 21.9 11 Norte 42 Norte 0 -- -- 54
2020-06-16 21:00:00 22.6 9 Norte 48 Norte 0 -- -- 51
2020-06-16 20:00:00 22.6 16 Norte 42 Norte 0 -- -- 50
2020-06-16 19:00:00 23.5 15 Norte 45 Norte 0 -- -- 47
2020-06-16 18:00:00 22.7 21 Nordeste 41 Norte 0 -- -- 55
2020-06-16 17:00:00 23.5 23 Norte 44 Norte 0 -- -- 48
2020-06-16 16:00:00 23.7 20 Nordeste 48 Norte 0 -- -- 47
2020-06-16 15:00:00 24.4 26 Nordeste 56 Nordeste 0 -- -- 46
2020-06-16 14:00:00 25.5 19 Nordeste 41 Nordeste 0 -- -- 42
2020-06-16 13:00:00 25.7 22 Nordeste 35 Nordeste 0 -- -- 42
2020-06-16 12:00:00 26 11 Norte 20 Norte 0 -- -- 48
2020-06-16 11:00:00 25 6 Nordeste 26 Norte 0 -- -- 45
2020-06-16 10:00:00 24.5 11 Norte 32 Nordeste 0 -- -- 47
2020-06-16 09:00:00 23.8 15 Nordeste 27 Este 0 -- -- 50
2020-06-16 08:00:00 22.3 13 Nordeste 34 Nordeste 0 -- -- 55
2020-06-16 07:00:00 19.8 6 Norte 19 Este 0 -- -- 68
2020-06-16 06:00:00 20 5 Este 22 Nordeste 0 -- -- 69
2020-06-16 05:00:00 20.5 5 Noroeste 16 Nordeste 0 -- -- 69
2020-06-16 04:00:00 19.4 9 Nordeste 26 Nordeste 0 -- -- 70
2020-06-16 03:00:00 21.3 15 Nordeste 33 Nordeste 0 -- -- 60
2020-06-16 02:00:00 19.3 11 Nordeste 22 Nordeste 0 -- -- 70
2020-06-16 01:00:00 21.5 11 Norte 34 Este 0 -- -- 65
2020-06-16 00:00:00 21.8 10 Nordeste 35 Nordeste 0 -- -- 60
2020-06-15 23:00:00 21.5 11 Nordeste 28 Nordeste 0 -- -- 61
2020-06-15 22:00:00 20.9 10 Nordeste 28 Nordeste 0 -- -- 63
2020-06-15 21:00:00 21 12 Nordeste 22 Nordeste 0 -- -- 61
2020-06-15 20:00:00 22.3 12 Norte 28 Nordeste 0 -- -- 53
2020-06-15 19:00:00 23.1 8 Sudeste 25 Norte 0 -- -- 60
2020-06-15 18:00:00 22.3 15 Nordeste 23 Norte 0 -- -- 70
2020-06-15 17:00:00 25.4 11 Norte 23 Este 0 -- -- 44
2020-06-15 16:00:00 24.8 12 Norte 22 Noroeste 0 -- -- 51
2020-06-15 15:00:00 24.3 13 Noroeste 26 Noroeste 0 -- -- 57
2020-06-15 14:00:00 24.7 9 Norte 22 Este 0 -- -- 52
2020-06-15 13:00:00 22.6 9 Nordeste 27 Este 0 -- -- 63
2020-06-15 12:00:00 21.2 5 Sudoeste 26 Sudoeste 0 -- -- 74
2020-06-15 11:00:00 20.6 5 Sudoeste 26 Noroeste 0 -- -- 72
2020-06-15 10:00:00 20.2 6 Noroeste 20 Sudoeste 1.8 -- -- 71
2020-06-15 09:00:00 19.8 12 Nordeste 25 Este 0.8 -- -- 74
2020-06-15 08:00:00 18.5 7 Sudeste 12 Sudeste 0 -- -- 85
2020-06-15 07:00:00 17.8 4 Nordeste 21 Sur 2.6 -- -- 84
2020-06-15 06:00:00 20.5 11 Sur 17 Sudoeste 0 -- -- 60
2020-06-15 05:00:00 19.4 6 Sur 22 Nordeste 0 -- -- 63
2020-06-15 04:00:00 18.7 15 Nordeste 22 Nordeste 0 -- -- 55
2020-06-15 03:00:00 21.9 11 Sur 19 Sur 0 -- -- 58
2020-06-15 02:00:00 17.9 3 Este 18 Oeste 0 -- -- 76
2020-06-15 01:00:00 19.1 12 Sur 36 Sur 0.2 -- -- 71
2020-06-15 00:00:00 21.8 17 Sur 34 Sur 0 -- -- 52
2020-06-14 23:00:00 23.5 8 Sur 28 Sudeste 0 -- -- 47
2020-06-14 22:00:00 18.6 8 Sudeste 19 Sudeste 0 -- -- 66
2020-06-14 21:00:00 23.8 4 Noroeste 14 Este 0 -- -- 46
2020-06-14 20:00:00 24.2 9 Nordeste 30 Nordeste 0 -- -- 42
2020-06-14 19:00:00 21.7 5 Norte 23 Oeste 0 -- -- 44
2020-06-14 18:00:00 20.6 9 Sur 24 Sur 0 -- -- 65
2020-06-14 17:00:00 22.7 13 Sur 32 Sur 0 -- -- 50
2020-06-14 16:00:00 18.9 6 Noroeste 22 Sudoeste 0 -- -- 78
2020-06-14 15:00:00 18.7 10 Noroeste 20 Oeste 0 -- -- 79
2020-06-14 14:00:00 19.2 9 Sudoeste 18 Oeste 0 -- -- 76
2020-06-14 13:00:00 18.9 7 Sudoeste 17 Sudoeste 0 -- -- 75
2020-06-14 12:00:00 19.2 8 Noroeste 15 Noroeste 0 -- -- 70
2020-06-14 11:00:00 18.2 7 Noroeste 13 Noroeste 0 -- -- 75
2020-06-14 10:00:00 17.1 3 Oeste 8 Sur 0 -- -- 76
2020-06-14 09:00:00 15.4 6 Sur 12 Sur 0 -- -- 86
2020-06-14 08:00:00 13.2 5 Sudeste 9 Sudeste 0 -- -- 85
2020-06-14 07:00:00 12.6 6 Sudeste 10 Sudeste 0 -- -- 82
2020-06-14 06:00:00 13 6 Sudeste 9 Sudeste 0 -- -- 82
2020-06-14 05:00:00 13.4 4 Este 12 Nordeste 0 -- -- 79
2020-06-14 04:00:00 13.6 8 Nordeste 13 Sudeste 0 -- -- 74
2020-06-14 03:00:00 13.8 6 Sur 11 Sur 0 -- -- 80
2020-06-14 02:00:00 13.7 6 Sudeste 10 Sudeste 0 -- -- 77
2020-06-14 01:00:00 14.6 2 Sur 5 Sudeste 0 -- -- 77
2020-06-14 00:00:00 15.4 0 Calma 6 Nordeste 0 -- -- 74
2020-06-13 23:00:00 15.7 4 Nordeste 15 Este 0 -- -- 75
2020-06-13 22:00:00 16.2 7 Nordeste 11 Nordeste 0 -- -- 83
2020-06-13 21:00:00 17.4 10 Norte 17 Norte 0 -- -- 78
2020-06-13 20:00:00 19.7 7 Sudoeste 20 Oeste 0 -- -- 66
2020-06-13 19:00:00 19.9 10 Norte 21 Norte 0 -- -- 66
2020-06-13 18:00:00 20.5 8 Oeste 18 Oeste 0 -- -- 59
2020-06-13 17:00:00 19.9 10 Sudoeste 18 Sur 0 -- -- 54
2020-06-13 16:00:00 20.2 11 Sudoeste 20 Sudoeste 0 -- -- 54
2020-06-13 15:00:00 20.2 8 Sudoeste 20 Sur 0 -- -- 56
2020-06-13 14:00:00 19 8 Oeste 17 Sur 0 -- -- 63
2020-06-13 13:00:00 18.8 9 Sudoeste 20 Sur 0 -- -- 65
2020-06-13 12:00:00 18.2 13 Sur 22 Sur 0 -- -- 67
2020-06-13 11:00:00 17 7 Sudoeste 12 Oeste 0 -- -- 75
2020-06-13 10:00:00 16.3 5 Sudoeste 8 Sur 0 -- -- 71
2020-06-13 09:00:00 14.7 3 Nordeste 12 Sudeste 0 -- -- 78
2020-06-13 08:00:00 13.4 8 Sudeste 16 Sur 0 -- -- 76
2020-06-13 07:00:00 12.9 0 Calma 8 Sudeste 0 -- -- 83
2020-06-13 06:00:00 13.2 4 Sur 12 Sur 0 -- -- 85
2020-06-13 05:00:00 12.4 5 Sudeste 9 Sudeste 0 -- -- 80
2020-06-13 04:00:00 12.6 3 Nordeste 9 Nordeste 0 -- -- 81
2020-06-13 03:00:00 13 3 Este 6 Nordeste 0 -- -- 86
2020-06-13 02:00:00 13 3 Sudeste 8 Sudeste 0 -- -- 82
2020-06-13 01:00:00 13.4 5 Este 9 Este 0 -- -- 71
2020-06-13 00:00:00 14.8 5 Noroeste 22 Nordeste 0 -- -- 70
2020-06-12 23:00:00 14.3 12 Nordeste 22 Nordeste 0 -- -- 70
2020-06-12 22:00:00 14.7 7 Nordeste 18 Norte 0 -- -- 83
2020-06-12 21:00:00 15.6 15 Nordeste 25 Norte 0 -- -- 84
2020-06-12 20:00:00 16.8 8 Norte 16 Norte 0 -- -- 76
2020-06-12 19:00:00 16.9 2 Sudoeste 17 Oeste 0 -- -- 73
2020-06-12 18:00:00 17.2 4 Noroeste 20 Norte 0 -- -- 77
2020-06-12 17:00:00 17.4 12 Norte 24 Noroeste 0 -- -- 75
2020-06-12 16:00:00 17.4 10 Sudoeste 23 Norte 0 -- -- 69
2020-06-12 15:00:00 18.4 11 Norte 23 Norte 0 -- -- 68
2020-06-12 14:00:00 17.2 8 Sudoeste 14 Sudoeste 0 -- -- 75
2020-06-12 13:00:00 17.6 5 Sur 18 Sudoeste 0 -- -- 73
2020-06-12 12:00:00 18.4 6 Noroeste 24 Nordeste 0 -- -- 65
2020-06-12 11:00:00 17.5 14 Norte 27 Nordeste 0 -- -- 63
2020-06-12 10:00:00 16.7 14 Norte 36 Norte 0 -- -- 65
2020-06-12 09:00:00 15.6 11 Norte 27 Nordeste 0 -- -- 66
2020-06-12 08:00:00 14.1 7 Nordeste 26 Norte 0 -- -- 70
2020-06-12 07:00:00 13.9 12 Este 28 Nordeste 0 -- -- 70
2020-06-12 06:00:00 14 11 Nordeste 22 Nordeste 0 -- -- 67
2020-06-12 05:00:00 13.6 10 Nordeste 17 Este 0 -- -- 68
2020-06-12 04:00:00 13.7 7 Nordeste 14 Este 0 -- -- 67
2020-06-12 03:00:00 13.7 3 Sudeste 9 Este 0 -- -- 78
2020-06-12 02:00:00 14.7 4 Este 21 Nordeste 0 -- -- 63
2020-06-12 01:00:00 14.5 6 Nordeste 18 Este 0 -- -- 67
2020-06-12 00:00:00 14.8 8 Nordeste 18 Este 0 -- -- 68